Time;durP1;ratioP1;P1;durP2;ratioP2;P2;SDS_P1;SDS_P2;PMS_P1;PMS_P2;Temp;Humidity;BMP_temperature;BMP_pressure;BME280_temperature;BME280_humidity;BME280_pressure;Samples;Min_cycle;Max_cycle;Signal;HPM_P1;HPM_P2
2023/07/14 00:00:41;;;;;;;5.78;1.88;;;;;19.80;98871.00;;;;5011979;28;20057;-65
2023/07/14 00:03:15;;;;;;;4.07;1.88;;;;;19.80;98867.00;;;;5027708;28;20141;-65
2023/07/14 00:05:42;;;;;;;3.05;1.83;;;;;19.80;98867.00;;;;5011119;28;20050;-66
2023/07/14 00:08:17;;;;;;;3.58;1.63;;;;;19.80;98865.00;;;;5012460;28;20080;-65
2023/07/14 00:10:44;;;;;;;2.58;1.73;;;;;19.70;98864.00;;;;5011752;28;20055;-65
2023/07/14 00:13:15;;;;;;;5.60;2.55;;;;;19.70;98867.00;;;;5012240;28;20046;-65
2023/07/14 00:15:42;;;;;;;5.75;1.88;;;;;19.70;98859.00;;;;5011077;28;20121;-65
2023/07/14 00:18:29;;;;;;;3.05;1.85;;;;;19.70;98863.00;;;;5012196;28;20125;-65
2023/07/14 00:20:56;;;;;;;3.78;2.10;;;;;19.60;98854.00;;;;5018341;28;20073;-64
2023/07/14 00:23:22;;;;;;;3.70;1.63;;;;;19.60;98853.00;;;;5018830;28;20045;-64
2023/07/14 00:25:50;;;;;;;3.97;1.70;;;;;19.50;98845.00;;;;5017642;28;20069;-64
2023/07/14 00:28:19;;;;;;;2.72;1.48;;;;;19.50;98854.00;;;;5018759;28;20048;-64
2023/07/14 00:30:48;;;;;;;4.20;1.90;;;;;19.40;98840.00;;;;5033538;28;20049;-64
2023/07/14 00:33:18;;;;;;;4.32;1.80;;;;;19.30;98844.00;;;;5017257;28;20042;-64
2023/07/14 00:35:45;;;;;;;3.28;1.40;;;;;19.40;98834.00;;;;5018589;28;20132;-64
2023/07/14 00:38:12;;;;;;;5.05;2.08;;;;;19.30;98837.00;;;;5017606;28;20042;-64
2023/07/14 00:40:46;;;;;;;5.38;1.83;;;;;19.20;98838.00;;;;5018116;28;20524;-64
2023/07/14 00:43:29;;;;;;;2.50;1.80;;;;;19.20;98836.00;;;;5018520;28;20088;-64
2023/07/14 00:45:56;;;;;;;3.90;1.75;;;;;19.00;98840.00;;;;5033958;28;20120;-64
2023/07/14 00:48:26;;;;;;;3.13;1.80;;;;;19.00;98837.00;;;;5017667;28;20454;-65
2023/07/14 00:51:12;;;;;;;3.80;1.88;;;;;19.00;98837.00;;;;5017838;28;20069;-65
2023/07/14 00:53:45;;;;;;;3.95;1.55;;;;;18.90;98836.00;;;;5017325;28;20034;-65
2023/07/14 00:56:14;;;;;;;3.33;2.17;;;;;18.90;98840.00;;;;5033528;28;20057;-64
2023/07/14 00:58:49;;;;;;;4.55;1.70;;;;;18.90;98836.00;;;;5033726;28;20056;-65
2023/07/14 01:01:24;;;;;;;2.60;1.60;;;;;18.90;98830.00;;;;5033235;28;20058;-67
2023/07/14 01:03:55;;;;;;;3.55;1.85;;;;;18.80;98824.00;;;;5034004;28;20042;-65
2023/07/14 01:06:38;;;;;;;1.95;1.60;;;;;18.70;98822.00;;;;5034020;28;20141;-65
2023/07/14 01:09:10;;;;;;;3.22;1.83;;;;;18.70;98824.00;;;;5016778;28;20053;-65
2023/07/14 01:11:52;;;;;;;8.35;1.85;;;;;18.70;98826.00;;;;5034074;28;20398;-65
2023/07/14 01:14:26;;;;;;;3.13;1.70;;;;;18.70;98813.00;;;;5000930;28;20529;-65
2023/07/14 01:16:54;;;;;;;4.93;1.90;;;;;18.70;98826.00;;;;5034635;28;20085;-65
2023/07/14 01:19:36;;;;;;;3.88;1.65;;;;;18.80;98826.00;;;;5018349;28;20050;-65
2023/07/14 01:22:28;;;;;;;4.10;1.58;;;;;18.80;98829.00;;;;5002862;28;20512;-65
2023/07/14 01:24:55;;;;;;;3.28;1.60;;;;;18.80;98835.00;;;;5018158;28;20046;-65
2023/07/14 01:27:24;;;;;;;4.45;2.15;;;;;18.90;98831.00;;;;5033491;28;20041;-64
2023/07/14 01:29:52;;;;;;;6.93;1.90;;;;;19.00;98828.00;;;;5014250;28;20558;-65
2023/07/14 01:32:22;;;;;;;3.25;1.52;;;;;19.10;98829.00;;;;5013641;28;20061;-65
2023/07/14 01:34:49;;;;;;;2.90;1.70;;;;;19.00;98834.00;;;;5013567;28;20420;-65
2023/07/14 01:37:20;;;;;;;2.63;1.70;;;;;18.90;98830.00;;;;5013799;28;20418;-65
2023/07/14 01:39:48;;;;;;;4.32;1.98;;;;;18.90;98837.00;;;;5029663;28;20133;-64
2023/07/14 01:42:15;;;;;;;3.85;1.65;;;;;19.00;98830.00;;;;5029817;28;20493;-65
2023/07/14 01:44:44;;;;;;;4.00;1.73;;;;;19.00;98830.00;;;;5013459;28;20042;-64
2023/07/14 01:47:12;;;;;;;2.33;1.85;;;;;18.90;98824.00;;;;5013384;28;20076;-65
2023/07/14 01:49:44;;;;;;;3.40;1.70;;;;;18.90;98822.00;;;;5014324;28;20045;-64
2023/07/14 01:52:20;;;;;;;3.65;1.92;;;;;19.00;98822.00;;;;5014963;28;20052;-64
2023/07/14 01:54:51;;;;;;;2.25;1.65;;;;;18.90;98822.00;;;;5013131;28;20137;-65
2023/07/14 01:57:21;;;;;;;2.65;2.00;;;;;18.80;98820.00;;;;5013268;28;20050;-64
2023/07/14 01:59:54;;;;;;;4.00;1.80;;;;;18.60;98815.00;;;;5029147;28;20052;-64
2023/07/14 02:02:33;;;;;;;2.28;1.63;;;;;18.50;98804.00;;;;5014474;28;20061;-64
2023/07/14 02:05:14;;;;;;;3.38;1.73;;;;;18.50;98816.00;;;;5030039;28;20395;-64
2023/07/14 02:07:41;;;;;;;4.15;1.52;;;;;18.40;98805.00;;;;5014574;28;20482;-64
2023/07/14 02:10:19;;;;;;;3.58;1.80;;;;;18.40;98805.00;;;;5029476;28;20052;-64
2023/07/14 02:12:49;;;;;;;4.88;1.75;;;;;18.40;98805.00;;;;5029517;28;20049;-63
2023/07/14 02:15:26;;;;;;;3.65;2.22;;;;;18.50;98796.00;;;;5029595;28;20057;-64
2023/07/14 02:17:54;;;;;;;4.07;2.00;;;;;18.40;98788.00;;;;5013259;28;20077;-63
2023/07/14 02:20:30;;;;;;;3.67;1.80;;;;;18.40;98796.00;;;;4997093;28;20060;-63
2023/07/14 02:22:58;;;;;;;3.78;1.70;;;;;18.40;98787.00;;;;5014614;28;20058;-66
2023/07/14 02:25:30;;;;;;;2.22;1.58;;;;;18.40;98792.00;;;;5030049;28;20056;-65
2023/07/14 02:27:57;;;;;;;3.78;1.85;;;;;18.30;98779.00;;;;5012910;28;20097;-65
2023/07/14 02:30:26;;;;;;;7.63;1.92;;;;;18.10;98782.00;;;;5012170;28;20133;-66
2023/07/14 02:32:58;;;;;;;3.13;1.63;;;;;18.10;98787.00;;;;5013804;28;20045;-65
2023/07/14 02:35:33;;;;;;;1.90;1.60;;;;;18.10;98788.00;;;;5029165;28;20056;-65
2023/07/14 02:38:04;;;;;;;4.65;1.77;;;;;18.10;98783.00;;;;5012748;28;20561;-65
2023/07/14 02:40:41;;;;;;;2.67;1.95;;;;;18.10;98784.00;;;;5013574;28;20045;-64
2023/07/14 02:43:10;;;;;;;4.65;1.85;;;;;18.10;98784.00;;;;5028673;28;20060;-65
2023/07/14 02:45:43;;;;;;;3.00;1.70;;;;;18.10;98795.00;;;;5013896;28;20042;-64
2023/07/14 02:48:15;;;;;;;2.83;1.80;;;;;18.00;98792.00;;;;5014155;28;20045;-65
2023/07/14 02:50:41;;;;;;;2.63;1.70;;;;;18.10;98788.00;;;;5013140;28;20100;-64
2023/07/14 02:53:10;;;;;;;4.07;1.90;;;;;18.10;98782.00;;;;5014013;28;20048;-65
2023/07/14 02:55:37;;;;;;;2.53;1.90;;;;;18.20;98780.00;;;;5013517;28;20069;-65
2023/07/14 02:58:04;;;;;;;3.83;2.15;;;;;18.20;98786.00;;;;5014247;28;20033;-65
2023/07/14 03:00:31;;;;;;;5.18;2.22;;;;;18.20;98783.00;;;;5013318;28;20077;-65
2023/07/14 03:02:57;;;;;;;2.13;1.67;;;;;18.10;98784.00;;;;5013710;28;20110;-65
2023/07/14 03:05:24;;;;;;;7.63;3.55;;;;;18.10;98787.00;;;;5012084;28;20041;-64
2023/07/14 03:07:51;;;;;;;6.72;2.90;;;;;18.00;98782.00;;;;5013421;28;20037;-64
2023/07/14 03:10:17;;;;;;;4.63;3.00;;;;;18.10;98787.00;;;;5028708;28;20057;-65
2023/07/14 03:12:44;;;;;;;5.72;3.70;;;;;18.00;98782.00;;;;5029441;28;20121;-65
2023/07/14 03:15:13;;;;;;;6.05;3.85;;;;;18.10;98783.00;;;;5013915;28;20048;-64
2023/07/14 03:17:40;;;;;;;5.72;4.30;;;;;18.00;98791.00;;;;5012140;28;20369;-65
2023/07/14 03:20:10;;;;;;;5.53;3.05;;;;;18.00;98784.00;;;;5028092;28;20046;-64
2023/07/14 03:22:37;;;;;;;2.35;1.92;;;;;17.90;98786.00;;;;5028974;28;20053;-64
2023/07/14 03:25:08;;;;;;;2.95;2.25;;;;;17.90;98794.00;;;;5013031;28;20038;-64
2023/07/14 03:27:34;;;;;;;4.72;2.85;;;;;17.90;98792.00;;;;5011963;28;20523;-65
2023/07/14 03:30:01;;;;;;;3.10;1.95;;;;;17.90;98781.00;;;;5010936;28;20088;-65
2023/07/14 03:32:28;;;;;;;3.15;2.10;;;;;17.80;98781.00;;;;5027930;28;20081;-65
2023/07/14 03:34:54;;;;;;;2.67;2.20;;;;;17.80;98775.00;;;;5011364;28;20037;-64
2023/07/14 03:37:21;;;;;;;3.92;2.13;;;;;17.90;98780.00;;;;5011395;28;20136;-64
2023/07/14 03:39:48;;;;;;;1.95;1.80;;;;;18.00;98778.00;;;;5027281;28;20447;-65
2023/07/14 03:42:14;;;;;;;3.53;2.20;;;;;18.00;98769.00;;;;5028139;28;20046;-68
2023/07/14 03:44:41;;;;;;;2.25;1.80;;;;;18.10;98774.00;;;;5012973;28;20046;-65
2023/07/14 03:47:07;;;;;;;2.58;2.20;;;;;18.10;98772.00;;;;5028128;28;20476;-65
2023/07/14 03:49:34;;;;;;;3.80;1.83;;;;;18.10;98761.00;;;;5012375;28;20399;-65
2023/07/14 03:52:02;;;;;;;3.67;2.13;;;;;18.10;98762.00;;;;5011521;28;20082;-64
2023/07/14 03:54:30;;;;;;;5.05;2.05;;;;;18.10;98761.00;;;;5027119;28;20038;-65
2023/07/14 03:56:58;;;;;;;4.72;2.20;;;;;18.10;98756.00;;;;5011443;28;20054;-65
2023/07/14 03:59:26;;;;;;;4.82;1.70;;;;;18.10;98760.00;;;;5010965;28;20041;-65
2023/07/14 04:01:54;;;;;;;5.85;1.92;;;;;18.20;98745.00;;;;5027641;28;20042;-65
2023/07/14 04:04:22;;;;;;;3.92;2.50;;;;;18.40;98752.00;;;;5012403;28;20045;-65
2023/07/14 04:06:49;;;;;;;4.07;2.28;;;;;18.40;98750.00;;;;5011128;28;20046;-65
2023/07/14 04:09:16;;;;;;;6.13;2.50;;;;;18.50;98751.00;;;;4994219;28;20144;-65
2023/07/14 04:11:43;;;;;;;6.20;4.00;;;;;18.60;98742.00;;;;5011372;28;20076;-64
2023/07/14 04:14:10;;;;;;;9.65;6.82;;;;;18.70;98740.00;;;;5027146;28;20336;-63
2023/07/14 04:16:38;;;;;;;3.13;2.38;;;;;18.80;98748.00;;;;5012005;28;20042;-64
2023/07/14 04:19:05;;;;;;;5.70;2.45;;;;;18.90;98739.00;;;;5010381;28;20124;-63
2023/07/14 04:21:33;;;;;;;6.32;3.65;;;;;19.00;98743.00;;;;5011042;28;20045;-64
2023/07/14 04:24:00;;;;;;;6.10;4.20;;;;;18.80;98748.00;;;;5010758;28;20060;-63
2023/07/14 04:26:27;;;;;;;5.57;3.22;;;;;18.70;98745.00;;;;5012184;28;20150;-63
2023/07/14 04:28:54;;;;;;;4.95;3.45;;;;;18.60;98738.00;;;;5011093;28;20052;-64
2023/07/14 04:31:21;;;;;;;7.38;3.60;;;;;18.40;98736.00;;;;5010551;28;20503;-63
2023/07/14 04:33:50;;;;;;;3.45;2.38;;;;;18.50;98746.00;;;;4994692;28;20061;-63
2023/07/14 04:36:17;;;;;;;6.22;3.33;;;;;18.60;98747.00;;;;5012501;28;20503;-64
2023/07/14 04:39:05;;;;;;;4.05;2.80;;;;;18.60;98745.00;;;;4994611;28;20676;-65
2023/07/14 04:41:32;;;;;;;5.82;2.88;;;;;18.50;98744.00;;;;5010839;28;20050;-65
2023/07/14 04:44:08;;;;;;;3.20;1.75;;;;;18.50;98746.00;;;;5027567;28;20136;-67
2023/07/14 04:46:36;;;;;;;5.07;2.15;;;;;18.50;98740.00;;;;5011376;28;20054;-65
2023/07/14 04:49:03;;;;;;;4.68;2.67;;;;;18.50;98736.00;;;;5012061;28;20042;-64
2023/07/14 04:51:31;;;;;;;5.75;2.70;;;;;18.50;98746.00;;;;5011105;28;20414;-65
2023/07/14 04:53:58;;;;;;;14.60;10.40;;;;;18.40;98735.00;;;;5010491;28;20120;-65
2023/07/14 04:56:25;;;;;;;8.50;4.85;;;;;18.40;98742.00;;;;5013087;28;20053;-65
2023/07/14 04:58:52;;;;;;;9.18;3.60;;;;;18.40;98733.00;;;;5012226;28;20129;-65
2023/07/14 05:01:19;;;;;;;6.72;3.85;;;;;18.40;98741.00;;;;5011742;28;20046;-65
2023/07/14 05:03:45;;;;;;;4.95;2.72;;;;;18.50;98727.00;;;;5010791;28;20038;-66
2023/07/14 05:06:13;;;;;;;3.47;2.50;;;;;18.50;98726.00;;;;5013903;28;20462;-66
2023/07/14 05:08:40;;;;;;;3.95;2.60;;;;;18.50;98721.00;;;;5015466;28;20629;-65
2023/07/14 05:11:07;;;;;;;4.50;3.40;;;;;18.50;98720.00;;;;5014937;28;20125;-65
2023/07/14 05:13:34;;;;;;;7.03;3.45;;;;;18.40;98727.00;;;;5014465;28;20049;-65
2023/07/14 05:16:00;;;;;;;6.63;2.47;;;;;18.40;98723.00;;;;5030959;28;20149;-65
2023/07/14 05:18:27;;;;;;;3.22;2.33;;;;;18.40;98718.00;;;;5015516;28;20042;-66
2023/07/14 05:20:58;;;;;;;5.72;2.33;;;;;18.40;98716.00;;;;5030145;28;20053;-65
2023/07/14 05:23:26;;;;;;;4.93;2.25;;;;;18.40;98714.00;;;;5014165;28;20132;-65
2023/07/14 05:25:53;;;;;;;5.38;2.00;;;;;18.60;98709.00;;;;5015065;28;20050;-65
2023/07/14 05:28:19;;;;;;;4.88;1.90;;;;;18.70;98701.00;;;;5015384;28;20050;-65
2023/07/14 05:30:46;;;;;;;7.38;3.03;;;;;18.80;98706.00;;;;5013348;28;20077;-65
2023/07/14 05:33:16;;;;;;;4.45;2.30;;;;;19.00;98704.00;;;;5015496;28;20058;-65
2023/07/14 05:35:43;;;;;;;4.22;2.33;;;;;19.20;98693.00;;;;5030023;28;20050;-66
2023/07/14 05:38:10;;;;;;;3.72;2.17;;;;;19.30;98702.00;;;;5015481;28;20221;-65
2023/07/14 05:40:37;;;;;;;2.92;2.20;;;;;19.40;98694.00;;;;5030029;28;20445;-66
2023/07/14 05:43:23;;;;;;;12.95;9.63;;;;;19.40;98691.00;;;;5000119;28;20049;-65
2023/07/14 05:45:50;;;;;;;5.38;2.40;;;;;19.50;98686.00;;;;5030213;28;20084;-65
2023/07/14 05:48:18;;;;;;;7.97;4.53;;;;;19.40;98698.00;;;;4997579;28;20056;-65
2023/07/14 05:50:45;;;;;;;4.38;2.20;;;;;19.60;98685.00;;;;5014296;28;20054;-65
2023/07/14 05:53:14;;;;;;;3.65;1.83;;;;;19.60;98686.00;;;;5030078;28;20052;-65
2023/07/14 05:55:40;;;;;;;2.90;1.67;;;;;19.70;98697.00;;;;5029580;28;20088;-65
2023/07/14 05:58:07;;;;;;;4.38;1.90;;;;;19.90;98701.00;;;;5014866;28;20042;-65
2023/07/14 06:00:38;;;;;;;3.88;1.88;;;;;20.00;98704.00;;;;5012992;28;20084;-65
2023/07/14 06:03:12;;;;;;;3.45;1.83;;;;;20.10;98698.00;;;;5014556;28;20129;-65
2023/07/14 06:05:40;;;;;;;3.42;2.25;;;;;20.10;98699.00;;;;5014369;28;20067;-65
2023/07/14 06:08:07;;;;;;;3.75;2.00;;;;;20.10;98691.00;;;;5013145;28;20141;-65
2023/07/14 06:10:34;;;;;;;4.35;1.98;;;;;20.20;98696.00;;;;5013597;28;20056;-65
2023/07/14 06:13:01;;;;;;;5.07;1.83;;;;;20.30;98690.00;;;;5014150;28;20077;-66
2023/07/14 06:15:28;;;;;;;2.45;1.75;;;;;20.40;98701.00;;;;5012356;28;20072;-66
2023/07/14 06:17:55;;;;;;;3.83;2.47;;;;;20.70;98704.00;;;;5013647;28;20384;-66
2023/07/14 06:20:22;;;;;;;3.40;2.28;;;;;20.90;98699.00;;;;5013602;28;20125;-66
2023/07/14 06:22:48;;;;;;;5.32;2.55;;;;;20.70;98694.00;;;;5012739;28;20049;-66
2023/07/14 06:25:15;;;;;;;2.97;1.92;;;;;20.60;98692.00;;;;5014078;28;20034;-66
2023/07/14 06:27:42;;;;;;;4.68;2.10;;;;;20.70;98690.00;;;;5014053;28;20462;-65
2023/07/14 06:30:08;;;;;;;6.90;2.03;;;;;20.80;98693.00;;;;5013318;28;20495;-66
2023/07/14 06:32:36;;;;;;;4.70;1.90;;;;;21.00;98691.00;;;;5029123;28;20054;-66
2023/07/14 06:35:04;;;;;;;2.90;1.80;;;;;21.20;98680.00;;;;5028826;28;20073;-66
2023/07/14 06:37:30;;;;;;;4.13;1.80;;;;;21.30;98676.00;;;;5029051;28;20111;-66
2023/07/14 06:39:57;;;;;;;4.03;2.10;;;;;21.50;98681.00;;;;5011805;28;20053;-66
2023/07/14 06:42:24;;;;;;;5.68;2.33;;;;;21.70;98678.00;;;;5013720;28;20556;-66
2023/07/14 06:44:50;;;;;;;5.18;2.25;;;;;21.80;98676.00;;;;5028772;28;20046;-66
2023/07/14 06:47:17;;;;;;;2.15;1.65;;;;;22.00;98677.00;;;;5028627;28;20096;-66
2023/07/14 06:49:44;;;;;;;3.97;1.83;;;;;22.10;98678.00;;;;5013012;28;20050;-66
2023/07/14 06:52:12;;;;;;;4.40;2.17;;;;;22.20;98674.00;;;;5013579;28;20494;-66
2023/07/14 06:54:39;;;;;;;3.50;1.70;;;;;22.40;98672.00;;;;5028538;28;20046;-66
2023/07/14 06:57:08;;;;;;;3.50;1.83;;;;;22.50;98676.00;;;;5013507;28;20073;-66
2023/07/14 06:59:35;;;;;;;3.55;1.70;;;;;22.50;98672.00;;;;5012772;28;20081;-66
2023/07/14 07:02:01;;;;;;;4.15;2.20;;;;;22.60;98662.00;;;;5013271;28;20517;-66
2023/07/14 07:04:32;;;;;;;4.43;1.67;;;;;22.80;98665.00;;;;5012117;28;20045;-66
2023/07/14 07:06:59;;;;;;;3.78;2.30;;;;;23.00;98662.00;;;;5029781;28;20104;-66
2023/07/14 07:09:27;;;;;;;3.95;2.20;;;;;23.10;98652.00;;;;5011229;28;20065;-66
2023/07/14 07:11:54;;;;;;;3.03;1.67;;;;;23.40;98663.00;;;;5013109;28;20212;-66
2023/07/14 07:14:21;;;;;;;3.88;1.83;;;;;23.50;98656.00;;;;5013118;28;20380;-66
2023/07/14 07:16:47;;;;;;;3.60;2.10;;;;;23.60;98651.00;;;;5011941;28;20057;-66
2023/07/14 07:19:15;;;;;;;3.97;1.63;;;;;23.80;98652.00;;;;5012661;28;20041;-66
2023/07/14 07:21:42;;;;;;;2.15;1.15;;;;;24.10;98654.00;;;;5013407;28;20137;-66
2023/07/14 07:24:09;;;;;;;6.30;3.00;;;;;24.20;98654.00;;;;5012909;28;20132;-66
2023/07/14 07:26:36;;;;;;;5.30;2.47;;;;;24.30;98650.00;;;;5012868;28;20112;-66
2023/07/14 07:29:06;;;;;;;4.07;2.63;;;;;24.30;98647.00;;;;5011709;28;20050;-65
2023/07/14 07:31:33;;;;;;;3.97;2.45;;;;;24.30;98650.00;;;;5028110;28;20041;-65
2023/07/14 07:34:00;;;;;;;3.28;1.55;;;;;24.50;98644.00;;;;5012710;28;20050;-65
2023/07/14 07:36:27;;;;;;;6.28;1.83;;;;;24.70;98638.00;;;;5011343;28;20570;-65
2023/07/14 07:38:54;;;;;;;2.63;2.00;;;;;24.70;98636.00;;;;5012679;28;20046;-65
2023/07/14 07:41:23;;;;;;;3.38;1.80;;;;;24.90;98643.00;;;;5012126;28;20141;-64
2023/07/14 07:43:51;;;;;;;3.95;1.80;;;;;25.00;98639.00;;;;5011546;28;20504;-64
2023/07/14 07:46:21;;;;;;;6.78;1.75;;;;;25.20;98635.00;;;;5027967;28;20140;-64
2023/07/14 07:48:49;;;;;;;2.45;1.63;;;;;25.20;98631.00;;;;5011405;28;20084;-64
2023/07/14 07:51:16;;;;;;;3.65;1.42;;;;;25.20;98630.00;;;;5011756;28;20042;-64
2023/07/14 07:53:43;;;;;;;4.75;1.63;;;;;25.30;98630.00;;;;5012377;28;20042;-65
2023/07/14 07:56:10;;;;;;;3.78;2.10;;;;;25.30;98626.00;;;;5011279;28;20038;-65
2023/07/14 07:58:38;;;;;;;4.82;1.63;;;;;25.40;98625.00;;;;5027460;28;20050;-65
2023/07/14 08:01:06;;;;;;;2.85;1.23;;;;;25.60;98623.00;;;;5026725;28;20041;-65
2023/07/14 08:03:34;;;;;;;2.33;1.73;;;;;25.80;98618.00;;;;5010916;28;20046;-65
2023/07/14 08:06:03;;;;;;;2.38;1.27;;;;;25.80;98623.00;;;;5012028;28;20564;-65
2023/07/14 08:08:31;;;;;;;1.98;1.40;;;;;25.80;98628.00;;;;5012323;28;20446;-66
2023/07/14 08:10:57;;;;;;;3.97;1.90;;;;;25.70;98617.00;;;;5011414;28;20063;-66
2023/07/14 08:13:25;;;;;;;1.63;1.38;;;;;26.00;98620.00;;;;5027539;28;20049;-65
2023/07/14 08:15:56;;;;;;;1.70;1.60;;;;;26.10;98614.00;;;;5010705;28;20494;-66
2023/07/14 08:18:24;;;;;;;2.38;1.17;;;;;26.30;98619.00;;;;4994630;28;20054;-66
2023/07/14 08:20:51;;;;;;;3.13;1.30;;;;;26.40;98615.00;;;;5010301;28;20053;-65
2023/07/14 08:23:20;;;;;;;3.85;1.33;;;;;26.50;98616.00;;;;5012139;28;20071;-64
2023/07/14 08:25:54;;;;;;;3.05;1.40;;;;;26.60;98616.00;;;;5026997;28;20042;-65
2023/07/14 08:28:22;;;;;;;3.25;1.40;;;;;26.60;98621.00;;;;5012243;28;20046;-65
2023/07/14 08:30:50;;;;;;;2.67;1.33;;;;;26.70;98609.00;;;;5011500;28;20137;-65
2023/07/14 08:33:18;;;;;;;3.33;1.80;;;;;26.90;98614.00;;;;5011036;28;20057;-66
2023/07/14 08:35:49;;;;;;;3.13;1.30;;;;;27.10;98614.00;;;;5011863;28;20050;-65
2023/07/14 08:38:15;;;;;;;7.53;1.52;;;;;27.40;98612.00;;;;5011969;28;20049;-66
2023/07/14 08:40:51;;;;;;;2.83;1.50;;;;;27.40;98615.00;;;;5013117;28;20069;-65
2023/07/14 08:43:43;;;;;;;3.92;1.30;;;;;27.50;98607.00;;;;5016316;28;20125;-65
2023/07/14 08:46:24;;;;;;;3.85;1.15;;;;;27.80;98611.00;;;;5014923;28;20042;-64
2023/07/14 08:49:22;;;;;;;3.05;1.40;;;;;27.90;98605.00;;;;5014937;28;20042;-65
2023/07/14 08:51:57;;;;;;;5.47;1.23;;;;;27.80;98606.00;;;;4998316;28;20157;-65
2023/07/14 08:54:28;;;;;;;3.17;1.48;;;;;27.90;98609.00;;;;5030952;28;20084;-65
2023/07/14 08:56:55;;;;;;;4.45;1.50;;;;;27.90;98605.00;;;;5031102;28;20052;-65
2023/07/14 08:59:40;;;;;;;2.92;1.60;;;;;27.80;98611.00;;;;5015286;28;20046;-65
2023/07/14 09:02:19;;;;;;;2.08;1.60;;;;;27.80;98604.00;;;;5014677;28;20088;-64
2023/07/14 09:04:56;;;;;;;4.40;1.83;;;;;27.80;98607.00;;;;5015954;28;20046;-65
2023/07/14 09:07:22;;;;;;;3.45;1.40;;;;;27.80;98605.00;;;;5030971;28;20054;-64
2023/07/14 09:09:49;;;;;;;2.78;1.30;;;;;28.00;98612.00;;;;5013954;28;20230;-65
2023/07/14 09:12:36;;;;;;;3.47;1.23;;;;;28.30;98603.00;;;;5030488;28;20056;-65
2023/07/14 09:15:10;;;;;;;2.72;1.25;;;;;28.40;98610.00;;;;5015285;28;20113;-65
2023/07/14 09:17:49;;;;;;;1.98;1.40;;;;;28.30;98604.00;;;;5015683;28;20050;-64
2023/07/14 09:20:40;;;;;;;1.98;1.33;;;;;28.10;98600.00;;;;4997450;28;20065;-66
2023/07/14 09:23:19;;;;;;;4.13;1.55;;;;;28.00;98601.00;;;;5015468;28;20050;-65
2023/07/14 09:25:53;;;;;;;5.43;2.03;;;;;27.90;98597.00;;;;5030497;28;20430;-64
2023/07/14 09:28:33;;;;;;;2.15;1.23;;;;;28.00;98598.00;;;;5030533;28;20046;-65
2023/07/14 09:31:05;;;;;;;3.17;1.40;;;;;28.00;98598.00;;;;5014790;28;20049;-65
2023/07/14 09:33:46;;;;;;;2.33;1.43;;;;;28.00;98595.00;;;;5014232;28;20061;-65
2023/07/14 09:36:13;;;;;;;5.00;1.33;;;;;28.10;98583.00;;;;5014176;28;20505;-65
2023/07/14 09:38:52;;;;;;;2.55;1.50;;;;;28.00;98583.00;;;;5014372;28;20057;-65
2023/07/14 09:41:23;;;;;;;2.08;1.20;;;;;28.00;98583.00;;;;5012727;28;20141;-65
2023/07/14 09:43:57;;;;;;;4.03;1.80;;;;;28.20;98575.00;;;;4997975;28;20125;-65
2023/07/14 09:46:24;;;;;;;2.85;1.42;;;;;28.20;98582.00;;;;5012424;28;20058;-65
2023/07/14 09:49:02;;;;;;;3.58;1.35;;;;;28.40;98576.00;;;;4997037;28;20113;-65
2023/07/14 09:51:29;;;;;;;2.63;1.52;;;;;28.50;98573.00;;;;4996355;28;20121;-66
2023/07/14 09:54:01;;;;;;;2.30;1.50;;;;;28.80;98567.00;;;;5011725;28;20583;-66
2023/07/14 09:56:31;;;;;;;1.88;1.10;;;;;29.20;98575.00;;;;4995207;28;20046;-65
2023/07/14 09:59:02;;;;;;;4.10;1.40;;;;;29.30;98568.00;;;;4995323;28;20081;-67
2023/07/14 10:01:29;;;;;;;2.55;1.23;;;;;29.40;98566.00;;;;4994235;28;20042;-64
2023/07/14 10:04:06;;;;;;;3.30;1.45;;;;;29.50;98561.00;;;;4993929;28;20133;-66
2023/07/14 10:06:33;;;;;;;3.92;1.55;;;;;29.50;98568.00;;;;4994681;28;20046;-64
2023/07/14 10:09:10;;;;;;;2.55;1.23;;;;;29.60;98579.00;;;;4994979;28;20058;-66
2023/07/14 10:11:46;;;;;;;3.13;1.20;;;;;29.60;98574.00;;;;4977306;28;20642;-63
2023/07/14 10:14:19;;;;;;;2.65;1.23;;;;;29.30;98582.00;;;;4994796;28;20048;-66
2023/07/14 10:16:46;;;;;;;3.00;1.23;;;;;29.00;98570.00;;;;4991398;28;20499;-65
2023/07/14 10:19:21;;;;;;;3.92;1.40;;;;;28.80;98581.00;;;;5013768;28;20080;-67
2023/07/14 10:22:04;;;;;;;2.55;1.30;;;;;28.60;98573.00;;;;5014416;28;20069;-65
2023/07/14 10:24:31;;;;;;;;;;;;;28.50;98578.00;;;;5013458;28;20056;-65
2023/07/14 10:27:04;;;;;;;2.42;1.58;;;;;28.40;98578.00;;;;5014119;28;19976;-65
2023/07/14 10:30:00;;;;;;;2.78;1.40;;;;;28.20;98579.00;;;;5013567;28;20128;-64
2023/07/14 10:32:32;;;;;;;3.95;1.52;;;;;28.10;98577.00;;;;5014242;28;20049;-65
2023/07/14 10:35:21;;;;;;;4.15;1.50;;;;;28.10;98567.00;;;;5012971;28;20574;-64
2023/07/14 10:38:25;;;;;;;1.60;1.10;;;;;28.30;98568.00;;;;5013896;28;20045;-66
2023/07/14 10:40:57;;;;;;;3.53;1.55;;;;;28.60;98553.00;;;;5010327;28;20089;-66
2023/07/14 10:43:44;;;;;;;3.20;1.30;;;;;28.90;98551.00;;;;5012443;28;20056;-66
2023/07/14 10:46:16;;;;;;;3.50;1.73;;;;;29.00;98545.00;;;;4994114;28;20406;-65
2023/07/14 10:49:15;;;;;;;2.57;1.50;;;;;29.00;98534.00;;;;5011912;28;20046;-65
2023/07/14 10:51:47;;;;;;;3.38;1.63;;;;;28.90;98522.00;;;;5012249;28;20750;-64
2023/07/14 10:54:17;;;;;;;2.88;1.90;;;;;29.10;98512.00;;;;5010575;28;20054;-65
2023/07/14 10:56:48;;;;;;;1.80;1.30;;;;;29.00;98499.00;;;;5011800;28;20402;-64
2023/07/14 10:59:29;;;;;;;2.85;1.45;;;;;29.10;98497.00;;;;5011141;28;20136;-65
2023/07/14 11:02:37;;;;;;;4.63;1.20;;;;;29.20;98499.00;;;;5013521;28;20498;-64
2023/07/14 11:05:24;;;;;;;5.03;1.60;;;;;29.20;98503.00;;;;4991676;28;20059;-64
2023/07/14 11:07:52;;;;;;;3.63;1.55;;;;;29.10;98512.00;;;;4975641;28;20082;-64
2023/07/14 11:10:44;;;;;;;2.10;1.33;;;;;29.00;98509.00;;;;5004640;28;20406;-64
2023/07/14 11:13:28;;;;;;;1.42;1.30;;;;;28.60;98517.00;;;;5013234;28;20041;-64
2023/07/14 11:16:01;;;;;;;3.40;1.48;;;;;28.50;98498.00;;;;5028340;28;20074;-65
2023/07/14 11:18:44;;;;;;;3.05;1.35;;;;;28.50;98486.00;;;;5013106;28;20052;-64
2023/07/14 11:21:21;;;;;;;4.85;1.33;;;;;28.60;98484.00;;;;5012751;28;20046;-65
2023/07/14 11:24:09;;;;;;;3.05;1.27;;;;;28.70;98488.00;;;;5028162;28;20081;-65
2023/07/14 11:26:49;;;;;;;1.98;1.20;;;;;28.90;98487.00;;;;5013155;28;20479;-65
2023/07/14 11:29:20;;;;;;;3.00;1.60;;;;;29.00;98477.00;;;;5011409;28;20092;-65
2023/07/14 11:31:52;;;;;;;5.47;3.30;;;;;29.10;98480.00;;;;5013123;28;20061;-66
2023/07/14 11:34:32;;;;;;;2.43;1.67;;;;;29.20;98486.00;;;;5013320;28;20107;-66
2023/07/14 11:37:21;;;;;;;5.63;2.03;;;;;29.30;98477.00;;;;5013026;28;20305;-65
2023/07/14 11:39:55;;;;;;;2.92;1.67;;;;;29.50;98472.00;;;;5011224;28;20050;-65
2023/07/14 11:42:31;;;;;;;3.47;1.30;;;;;29.50;98451.00;;;;5012749;28;20050;-65
2023/07/14 11:45:00;;;;;;;3.72;1.60;;;;;29.60;98456.00;;;;5011732;28;20129;-66
2023/07/14 11:47:35;;;;;;;2.10;1.58;;;;;29.60;98465.00;;;;5012913;28;20065;-65
2023/07/14 11:50:20;;;;;;;4.35;1.83;;;;;29.60;98469.00;;;;5012093;28;20046;-65
2023/07/14 11:53:06;;;;;;;2.45;1.40;;;;;29.50;98465.00;;;;5011859;28;20545;-65
2023/07/14 11:55:37;;;;;;;5.28;1.60;;;;;29.30;98475.00;;;;5012831;28;20049;-64
2023/07/14 11:58:18;;;;;;;3.17;1.73;;;;;29.20;98477.00;;;;5027867;28;20077;-63
2023/07/14 12:00:47;;;;;;;3.60;1.77;;;;;29.20;98477.00;;;;5012102;28;20040;-64
2023/07/14 12:03:27;;;;;;;3.50;1.40;;;;;29.30;98463.00;;;;5012514;28;20124;-65
2023/07/14 12:06:47;;;;;;;3.88;2.00;;;;;29.30;98460.00;;;;5011232;28;20080;-64
2023/07/14 12:09:18;;;;;;;2.88;1.70;;;;;29.20;98456.00;;;;5012032;28;20046;-64
2023/07/14 12:11:57;;;;;;;3.78;1.50;;;;;29.20;98446.00;;;;5027736;28;20440;-64
2023/07/14 12:14:30;;;;;;;3.20;1.73;;;;;29.10;98436.00;;;;5026740;28;20050;-64
2023/07/14 12:16:57;;;;;;;;;;;;;28.80;98429.00;;;;5028088;28;20061;-65
2023/07/14 12:19:48;;;;;;;4.32;1.75;;;;;28.60;98433.00;;;;5026427;28;19963;-64
2023/07/14 12:22:37;;;;;;;2.47;1.45;;;;;28.30;98425.00;;;;5012216;28;20410;-65
2023/07/14 12:25:11;;;;;;;3.20;1.80;;;;;28.30;98451.00;;;;5012366;28;20046;-65
2023/07/14 12:27:47;;;;;;;3.17;1.38;;;;;28.30;98449.00;;;;5012319;28;20042;-66
2023/07/14 12:30:21;;;;;;;2.10;1.38;;;;;28.30;98428.00;;;;5027041;28;20554;-66
2023/07/14 12:32:53;;;;;;;6.18;1.50;;;;;28.30;98380.00;;;;5012256;28;20462;-65
2023/07/14 12:35:20;;;;;;;3.00;2.10;;;;;28.20;98317.00;;;;5010846;28;20084;-65
2023/07/14 12:37:47;;;;;;;4.78;1.90;;;;;28.20;98287.00;;;;5010917;28;20050;-66
2023/07/14 12:40:17;;;;;;;1.77;1.50;;;;;28.30;98289.00;;;;5010442;28;20060;-66